Marinicki — 9HWU9 — position and weather

sailwx.info

Track history (hours):
 
Tides and Currents Weather Stations Pressure Air Temp Water Temp Dewpoint Dewpoint Depression Visibility Wind Speed Wind Dir Waves Ship Positions

Marinicki

Last reported at 2016-Sep-26 02:29 UTC. Time now 2016-Sep-26 03:43 UTC.
Position N 57°38' E 010°43'.

Length 225 m; draft 14.2 m.

Type: Cargo ship. MMSI: 249650000.

Date/timePositionNaut miles runAvg speedWind from/ knotsBaromVisibWave heightAir tempDewpointWater temp
2016-Sep-26 02:29N 57°38' E 010°43'0 0.0
2016-Sep-26 01:29N 57°38' E 010°43'1 0.7
2016-Sep-26 00:33N 57°39' E 010°44'29 9.5
2016-Sep-25 21:33N 57°23' E 011°29'4912.3
2016-Sep-25 17:33N 56°35' E 011°43'1312.8
2016-Sep-25 16:33N 56°24' E 011°31'1312.5
2016-Sep-25 15:33N 56°13' E 011°19'1211.9
2016-Sep-25 14:33N 56°03' E 011°07'3510.6
2016-Sep-25 11:12N 55°29' E 010°55'911.9
2016-Sep-25 10:27N 55°21' E 011°02'1010.5
2016-Sep-25 09:33N 55°11' E 011°04'2110.5
2016-Sep-25 07:33N 54°52' E 010°50'28 9.5
2016-Sep-25 04:33N 54°32' E 011°25'33 8.2
2016-Sep-25 00:33N 54°38' E 012°21'2110.5
2016-Sep-24 22:31N 54°49' E 012°52'1411.8
2016-Sep-24 21:19N 54°54' E 013°15'2411.8
2016-Sep-24 19:17N 55°02' E 013°54'811.5
2016-Sep-24 18:33N 55°06' E 014°08'1211.8
2016-Sep-24 17:33N 55°16' E 014°19'1211.9
2016-Sep-24 16:33N 55°25' E 014°32'2311.6
2016-Sep-24 14:33N 55°36' E 015°08'36311.4
2016-Sep-23 06:33N 59°40' E 023°32'2412.0
2016-Sep-23 04:33N 59°46' E 024°17'1211.9
2016-Sep-23 03:32N 59°49' E 024°41'5011.8
2016-Sep-22 23:17N 59°59' E 026°19'11 3.8
2016-Sep-22 20:31N 60°09' E 026°30'0 0.0
2016-Sep-22 12:31N 60°09' E 026°30'0 0.0
2016-Sep-22 04:31N 60°09' E 026°30'0 0.0
2016-Sep-22 03:31N 60°09' E 026°29'0 0.0
2016-Sep-22 00:31N 60°09' E 026°30'0 0.0
2016-Sep-21 23:31N 60°09' E 026°30'0 0.0
2016-Sep-21 22:31N 60°09' E 026°29'0 0.0
2016-Sep-21 19:31N 60°09' E 026°30'0 0.0
2016-Sep-21 16:31N 60°09' E 026°30'47 6.6
2016-Sep-21 09:22N 60°20' E 028°02'  
2016-Sep-18 02:33N 60°01' E 027°16'1211.5
2016-Sep-18 01:33N 59°59' E 026°53'1211.9
2016-Sep-18 00:32N 59°58' E 026°30'4711.9
2016-Sep-17 20:33N 59°47' E 024°58'1511.8
2016-Sep-17 19:16N 59°43' E 024°29'38111.3
2016-Sep-16 09:33N 55°36' E 015°28'2110.6
2016-Sep-16 07:33N 55°28' E 014°54'4511.3
2016-Sep-16 03:33N 55°11' E 013°40'1212.1
2016-Sep-16 02:33N 55°14' E 013°19'  
Track history (hours):
 
Tides and Currents Weather Stations Pressure Air Temp Water Temp Dewpoint Dewpoint Depression Visibility Wind Speed Wind Dir Waves Ship Positions

Marinicki

Last reported at 2016-Sep-26 02:29 UTC. Time now 2016-Sep-26 03:43 UTC.
Position N 57°38' E 010°43'.

Length 225 m; draft 14.2 m.

Type: Cargo ship. MMSI: 249650000.

Date/timePositionNaut miles runAvg speedWind from/ knotsBaromVisibWave heightAir tempDewpointWater temp
2016-Sep-26 02:29N 57°38' E 010°43'0 0.0
2016-Sep-26 01:29N 57°38' E 010°43'1 0.7
2016-Sep-26 00:33N 57°39' E 010°44'29 9.5
2016-Sep-25 21:33N 57°23' E 011°29'4912.3
2016-Sep-25 17:33N 56°35' E 011°43'1312.8
2016-Sep-25 16:33N 56°24' E 011°31'1312.5
2016-Sep-25 15:33N 56°13' E 011°19'1211.9
2016-Sep-25 14:33N 56°03' E 011°07'3510.6
2016-Sep-25 11:12N 55°29' E 010°55'911.9
2016-Sep-25 10:27N 55°21' E 011°02'1010.5
2016-Sep-25 09:33N 55°11' E 011°04'2110.5
2016-Sep-25 07:33N 54°52' E 010°50'28 9.5
2016-Sep-25 04:33N 54°32' E 011°25'33 8.2
2016-Sep-25 00:33N 54°38' E 012°21'2110.5
2016-Sep-24 22:31N 54°49' E 012°52'1411.8
2016-Sep-24 21:19N 54°54' E 013°15'2411.8
2016-Sep-24 19:17N 55°02' E 013°54'811.5
2016-Sep-24 18:33N 55°06' E 014°08'1211.8
2016-Sep-24 17:33N 55°16' E 014°19'1211.9
2016-Sep-24 16:33N 55°25' E 014°32'2311.6
2016-Sep-24 14:33N 55°36' E 015°08'36311.4
2016-Sep-23 06:33N 59°40' E 023°32'2412.0
2016-Sep-23 04:33N 59°46' E 024°17'1211.9
2016-Sep-23 03:32N 59°49' E 024°41'5011.8
2016-Sep-22 23:17N 59°59' E 026°19'11 3.8
2016-Sep-22 20:31N 60°09' E 026°30'0 0.0
2016-Sep-22 12:31N 60°09' E 026°30'0 0.0
2016-Sep-22 04:31N 60°09' E 026°30'0 0.0
2016-Sep-22 03:31N 60°09' E 026°29'0 0.0
2016-Sep-22 00:31N 60°09' E 026°30'0 0.0
2016-Sep-21 23:31N 60°09' E 026°30'0 0.0
2016-Sep-21 22:31N 60°09' E 026°29'0 0.0
2016-Sep-21 19:31N 60°09' E 026°30'0 0.0
2016-Sep-21 16:31N 60°09' E 026°30'47 6.6
2016-Sep-21 09:22N 60°20' E 028°02'  
2016-Sep-18 02:33N 60°01' E 027°16'1211.5
2016-Sep-18 01:33N 59°59' E 026°53'1211.9
2016-Sep-18 00:32N 59°58' E 026°30'4711.9
2016-Sep-17 20:33N 59°47' E 024°58'1511.8
2016-Sep-17 19:16N 59°43' E 024°29'38111.3
2016-Sep-16 09:33N 55°36' E 015°28'2110.6
2016-Sep-16 07:33N 55°28' E 014°54'4511.3
2016-Sep-16 03:33N 55°11' E 013°40'1212.1
2016-Sep-16 02:33N 55°14' E 013°19'  

Dump ship's entire track history